Monroe, Oklahoma
Current Conditions -  °F | °C
As of 10:35 AM on Wednesday 26 Nov 2014 (Local Time) from KRKR Reporting Station
Broken Clouds Broken Clouds  
Wind Chill: 46°   Ceiling: 11000
Heat Index: 49°   Visibility: 10mi
Dew Point: 29°   Wind: 6mph
Humidity: 47%   Direction: 210°SSW
Pressure: 30.08"   Gusts: NA
Location:  34.99°N, 94.52°W
Report Text: KRKR 261635Z AUTO 21005KT 10SM BKN110 09/M01 A3008 RMK AO2 T00921015
Loading
Personal Weather Stations






























Interactive Weather Map New forecast layout! Learn more

10-Day Weather Forecast

Advertisements
Track Severe Weather on mobile